Airfield :







YOU CAN JOIN US ON...

 
LOGIN :

Register | Disclaimer

   EN    FR    IT 

 









Legend :    VFR   Marginal VFR   IFR   Intensive IFR   Very Intensive IFR
Visi :
Ceiling :
>= 8 km
>= 3000ft
5 to 8 km
1000 to 3000 ft
1500m to 5 km
500 to 1000 ft
800 to 1500m
200 to 500 ft
< 800m
< 200 ft
Symbols :   Thunderstorms  Fog  Heavy snow  Heavy precipitations  Wind > 20 kt







- Airport Elevation : 92 ft
- IATA code : YZX


CYZX - CFB Greenwood

CURRENT METAR :
  • 230515Z 07013KT 10SM OVC006 07/07 A3014 RMK SF8 SLP208

EXPIRED METARs :
  • 230500Z 07012KT 5SM -DZ BR OVC005 07/07 A3015 RMK SF8 SLP210
  • 230419Z 06016KT 5SM -DZ BR OVC006 07/07 A3017 RMK SF8 SLP217
  • 230400Z 06012G20KT 8SM OVC006 07/07 A3017 RMK SF8 SLP217
  • 230345Z 06013KT 8SM OVC006 08/07 A3017 RMK SF8 SLP218
  • 230300Z 06017KT 4SM -RA BR OVC006 08/08 A3017 RMK SF8 SLP217

TAF TAF CYZX
Valid from the 23 at 06:00 until the 24 at 06:00 UTC


230530Z 2306/2406 07015KT 2SM -RA -DZ BR OVC005
TEMPO 2306/2309 6SM -RA BR OVC008
FM230900 07015KT 2SM RA BR OVC003
TEMPO 2309/2316 6SM -RA BR SCT003 OVC008
FM231600 12008KT 5SM -RA -DZ BR OVC010
TEMPO 2316/2323 P6SM NSW OVC015
FM232300 VRB03KT 4SM -RA BR OVC008
FM240400 31008KT 6SM -DZ -RA BR OVC010 RMK NXT FCST BY 231200Z
CZQM FIR / North America



MET'MAP, your aeronautical weather chart ! - Copyright ORBIFLY December 2007 - Disclaimer

ORBIFLY MET'MAP TEAM :

Programming & Development : Alexandra Zaïnal
Concept & Development : Baudouin d'Aumeries
Co-Development & Prog : Marc-Olivier Méhu
Technical & hardware support : Manuel Goepfert

Contact : metmap@orbifly.com




SOURCES & CREDITS :

   NOAA